Time;durP1;ratioP1;P1;durP2;ratioP2;P2;SDS_P1;SDS_P2;PMS_P1;PMS_P2;Temp;Humidity;BMP_temperature;BMP_pressure;BME280_temperature;BME280_humidity;BME280_pressure;Samples;Min_cycle;Max_cycle;Signal;HPM_P1;HPM_P2
2022/10/24 00:00:34;;;;;;;;;;;;;;;15.38;88.90;100313.50;5032321;28;19973;-58
2022/10/24 00:02:59;;;;;;;;;;;;;;;15.39;88.76;100308.97;5030948;28;19922;-58
2022/10/24 00:05:25;;;;;;;;;;;;;;;15.39;88.65;100308.97;5030999;28;19925;-59
2022/10/24 00:07:50;;;;;;;;;;;;;;;15.39;88.38;100314.34;5031855;28;19924;-58
2022/10/24 00:10:16;;;;;;;;;;;;;;;15.42;88.21;100311.22;5029602;28;19917;-58
2022/10/24 00:12:41;;;;;;;;;;;;;;;15.42;87.84;100305.88;5031894;28;19925;-58
2022/10/24 00:15:07;;;;;;;;;;;;;;;15.42;87.51;100303.19;5023361;28;19921;-59
2022/10/24 00:17:32;;;;;;;;;;;;;;;15.44;87.20;100301.94;5028116;28;19918;-58
2022/10/24 00:19:59;;;;;;;;;;;;;;;15.48;86.81;100303.16;5027708;28;19921;-58
2022/10/24 00:22:24;;;;;;;;;;;;;;;15.50;86.52;100298.41;5032277;28;19996;-58
2022/10/24 00:24:49;;;;;;;;;;;;;;;15.50;86.37;100295.72;5031956;28;20426;-58
2022/10/24 00:27:14;;;;;;;;;;;;;;;15.48;86.13;100303.16;5031387;28;19945;-57
2022/10/24 00:29:40;;;;;;;;;;;;;;;15.49;85.96;100298.63;5027473;28;19917;-57
2022/10/24 00:32:05;;;;;;;;;;;;;;;15.51;85.38;100296.53;5031069;28;19922;-58
2022/10/24 00:34:30;;;;;;;;;;;;;;;15.56;85.12;100301.25;5030519;28;19947;-59
2022/10/24 00:36:55;;;;;;;;;;;;;;;15.56;84.96;100293.22;5031429;28;19917;-59
2022/10/24 00:39:21;;;;;;;;;;;;;;;15.57;84.28;100287.63;5029575;28;20306;-58
2022/10/24 00:41:46;;;;;;;;;;;;;;;15.61;83.80;100296.94;5028929;28;19917;-58
2022/10/24 00:44:26;;;;;;;;;;;;;;;15.65;83.39;100290.09;5028845;28;19936;-59
2022/10/24 00:46:51;;;;;;;;;;;;;;;15.69;82.73;100293.16;5032324;28;19923;-58
2022/10/24 00:49:18;;;;;;;;;;;;;;;15.75;82.02;100303.81;5030856;28;19913;-58
2022/10/24 00:51:45;;;;;;;;;;;;;;;15.82;81.47;100289.56;5031623;28;19921;-58
2022/10/24 00:54:12;;;;;;;;;;;;;;;15.85;81.30;100276.53;5024572;28;19995;-59
2022/10/24 00:56:40;;;;;;;;;;;;;;;15.87;80.74;100287.03;5030940;28;19917;-58
2022/10/24 00:59:07;;;;;;;;;;;;;;;15.87;80.58;100279.81;5030667;28;19967;-58
2022/10/24 01:01:33;;;;;;;;;;;;;;;15.87;80.51;100271.78;5035909;28;20316;-59
2022/10/24 01:03:58;;;;;;;;;;;;;;;15.85;80.25;100270.38;5030471;28;19917;-59
2022/10/24 01:06:35;;;;;;;;;;;;;;;15.82;80.67;100274.31;5031912;28;19928;-58
2022/10/24 01:09:06;;;;;;;;;;;;;;;15.78;80.67;100271.25;5029364;28;20568;-59
2022/10/24 01:11:31;;;;;;;;;;;;;;;15.74;80.21;100287.97;5030686;28;19921;-59
2022/10/24 01:14:00;;;;;;;;;;;;;;;15.73;80.19;100276.44;5036563;28;19921;-58
2022/10/24 01:16:31;;;;;;;;;;;;;;;15.72;80.13;100276.66;5024886;28;20293;-58
2022/10/24 01:19:22;;;;;;;;;;;;;;;15.69;80.12;100277.91;5027410;28;19964;-58
2022/10/24 01:21:54;;;;;;;;;;;;;;;15.70;79.84;100276.88;5007093;28;19921;-57
2022/10/24 01:24:38;;;;;;;;;;;;;;;15.71;79.79;100275.84;5028717;28;19928;-59
2022/10/24 01:27:06;;;;;;;;;;;;;;;15.70;79.64;100279.56;5030619;28;19952;-59
2022/10/24 01:29:48;;;;;;;;;;;;;;;15.67;79.17;100274.66;5020540;28;19948;-58
2022/10/24 01:32:18;;;;;;;;;;;;;;;15.67;79.24;100273.81;5029271;28;20452;-58
2022/10/24 01:34:45;;;;;;;;;;;;;;;15.67;78.83;100279.19;5027568;28;19921;-58
2022/10/24 01:37:20;;;;;;;;;;;;;;;15.69;78.64;100269.88;5029279;28;19917;-58
2022/10/24 01:39:51;;;;;;;;;;;;;;;15.69;78.45;100277.09;5044386;28;19917;-58
2022/10/24 01:42:19;;;;;;;;;;;;;;;15.71;78.57;100261.63;5025401;28;20060;-58
2022/10/24 01:44:47;;;;;;;;;;;;;;;15.68;78.27;100267.44;5032745;28;19927;-58
2022/10/24 01:47:15;;;;;;;;;;;;;;;15.70;77.75;100260.00;5034160;28;19928;-58
2022/10/24 01:49:43;;;;;;;;;;;;;;;15.72;77.55;100255.25;5026172;28;19917;-58
2022/10/24 01:52:11;;;;;;;;;;;;;;;15.72;77.54;100255.25;5030868;28;19932;-58
2022/10/24 01:54:37;;;;;;;;;;;;;;;15.71;77.32;100249.06;5029619;28;20381;-58
2022/10/24 01:57:04;;;;;;;;;;;;;;;15.69;77.17;100251.16;5029229;28;19917;-58
2022/10/24 01:59:29;;;;;;;;;;;;;;;15.69;77.20;100253.00;5030265;28;19959;-59
2022/10/24 02:02:13;;;;;;;;;;;;;;;15.68;76.44;100246.03;5026393;28;19960;-59
2022/10/24 02:04:40;;;;;;;;;;;;;;;15.72;76.53;100244.53;5031661;28;19960;-57
2022/10/24 02:07:07;;;;;;;;;;;;;;;15.74;76.20;100243.28;5025833;28;19917;-58
2022/10/24 02:09:34;;;;;;;;;;;;;;;15.77;75.89;100244.69;5029440;28;19917;-58
2022/10/24 02:11:59;;;;;;;;;;;;;;;15.76;75.74;100254.59;5019549;28;19921;-58
2022/10/24 02:14:30;;;;;;;;;;;;;;;15.72;75.38;100236.50;5031595;28;20479;-58
2022/10/24 02:16:55;;;;;;;;;;;;;;;15.73;75.09;100241.63;5029031;28;19917;-58
2022/10/24 02:19:20;;;;;;;;;;;;;;;15.75;75.10;100252.13;5028376;28;20335;-59
2022/10/24 02:21:48;;;;;;;;;;;;;;;15.71;74.85;100241.03;5032497;28;19917;-58
2022/10/24 02:24:28;;;;;;;;;;;;;;;15.77;74.59;100248.19;5028401;28;19921;-59
2022/10/24 02:27:05;;;;;;;;;;;;;;;15.78;74.37;100243.66;5025233;28;19917;-58
2022/10/24 02:29:44;;;;;;;;;;;;;;;15.78;74.14;100249.00;5028572;28;19943;-59
2022/10/24 02:32:14;;;;;;;;;;;;;;;15.78;74.04;100244.47;5021582;28;20404;-58
2022/10/24 02:34:41;;;;;;;;;;;;;;;15.74;74.03;100245.97;5030361;28;19917;-58
2022/10/24 02:37:08;;;;;;;;;;;;;;;15.79;73.64;100240.75;5027031;28;19917;-58
2022/10/24 02:39:33;;;;;;;;;;;;;;;15.81;73.57;100240.53;5027974;28;20599;-57
2022/10/24 02:42:00;;;;;;;;;;;;;;;15.83;73.28;100235.78;5027825;28;20004;-58
2022/10/24 02:44:26;;;;;;;;;;;;;;;15.92;72.55;100244.38;5028052;28;19917;-57
2022/10/24 02:46:53;;;;;;;;;;;;;;;15.96;72.78;100240.22;5027373;28;19924;-57
2022/10/24 02:49:18;;;;;;;;;;;;;;;15.93;72.71;100246.84;5025028;28;19923;-58
2022/10/24 02:51:45;;;;;;;;;;;;;;;15.91;72.33;100248.09;5027391;28;19929;-57
2022/10/24 02:54:10;;;;;;;;;;;;;;;15.86;72.56;100240.69;5027794;28;20269;-58
2022/10/24 02:56:38;;;;;;;;;;;;;;;15.83;72.21;100248.34;5028926;28;20399;-58
2022/10/24 02:59:04;;;;;;;;;;;;;;;15.86;72.01;100253.25;5029272;28;19925;-58
2022/10/24 03:01:29;;;;;;;;;;;;;;;15.94;71.71;100253.00;5030097;28;19975;-58
2022/10/24 03:03:54;;;;;;;;;;;;;;;15.94;71.36;100247.66;5028160;28;19917;-57
2022/10/24 03:06:19;;;;;;;;;;;;;;;15.96;71.24;100254.44;5026744;28;19967;-58
2022/10/24 03:08:44;;;;;;;;;;;;;;;15.93;71.30;100252.19;5028404;28;20458;-57
2022/10/24 03:11:09;;;;;;;;;;;;;;;15.92;71.34;100260.44;5027910;28;19917;-59
2022/10/24 03:13:35;;;;;;;;;;;;;;;15.91;71.09;100262.31;5026665;28;20403;-58
2022/10/24 03:16:00;;;;;;;;;;;;;;;15.94;70.93;100251.16;5029003;28;19913;-59
2022/10/24 03:18:25;;;;;;;;;;;;;;;15.92;71.07;100258.59;5027469;28;19917;-58
2022/10/24 03:20:50;;;;;;;;;;;;;;;15.91;70.84;100258.81;5030223;28;19913;-58
2022/10/24 03:23:18;;;;;;;;;;;;;;;15.88;70.77;100264.56;5025262;28;19956;-58
2022/10/24 03:25:43;;;;;;;;;;;;;;;15.91;70.91;100254.28;5025435;28;20373;-58
2022/10/24 03:28:08;;;;;;;;;;;;;;;15.95;70.49;100257.31;5027364;28;19925;-58
2022/10/24 03:30:33;;;;;;;;;;;;;;;15.98;70.63;100251.53;5034949;28;20015;-58
2022/10/24 03:32:58;;;;;;;;;;;;;;;15.95;70.17;100258.16;5028883;28;20396;-56
2022/10/24 03:35:24;;;;;;;;;;;;;;;15.94;70.48;100250.34;5026907;28;19952;-58
2022/10/24 03:37:49;;;;;;;;;;;;;;;15.93;70.23;100230.75;5024976;28;20063;-57
2022/10/24 03:40:14;;;;;;;;;;;;;;;16.01;69.98;100249.22;5030029;28;20288;-59
2022/10/24 03:42:39;;;;;;;;;;;;;;;16.02;70.35;100250.03;5028013;28;20393;-59
2022/10/24 03:45:05;;;;;;;;;;;;;;;16.02;70.17;100242.00;5028133;28;19920;-58
2022/10/24 03:47:30;;;;;;;;;;;;;;;16.04;70.34;100237.25;5026150;28;19984;-58
2022/10/24 03:49:55;;;;;;;;;;;;;;;16.03;70.18;100231.06;5026361;28;19924;-58
2022/10/24 03:52:20;;;;;;;;;;;;;;;16.00;70.53;100233.38;5026237;28;19933;-58
2022/10/24 03:54:45;;;;;;;;;;;;;;;15.96;70.72;100227.66;5031284;28;20356;-58
2022/10/24 03:57:11;;;;;;;;;;;;;;;15.90;71.06;100235.72;5033878;28;20392;-58
2022/10/24 03:59:36;;;;;;;;;;;;;;;15.82;71.21;100225.28;5022320;28;19917;-58
2022/10/24 04:02:02;;;;;;;;;;;;;;;15.81;71.19;100227.16;5031390;28;20439;-58
2022/10/24 04:04:27;;;;;;;;;;;;;;;15.76;71.36;100227.00;5029820;28;19917;-58
2022/10/24 04:06:53;;;;;;;;;;;;;;;15.72;71.40;100223.13;5028579;28;19917;-58
2022/10/24 04:09:18;;;;;;;;;;;;;;;15.70;71.54;100228.69;5023313;28;20380;-58
2022/10/24 04:11:44;;;;;;;;;;;;;;;15.71;71.43;100232.19;5018091;28;20624;-58
2022/10/24 04:14:09;;;;;;;;;;;;;;;15.67;71.74;100233.66;5022666;28;20012;-58
2022/10/24 04:16:34;;;;;;;;;;;;;;;15.66;71.67;100224.81;5025844;28;20316;-58
2022/10/24 04:19:00;;;;;;;;;;;;;;;15.67;71.84;100231.00;5025625;28;19971;-58
2022/10/24 04:21:25;;;;;;;;;;;;;;;15.69;71.55;100223.56;5023901;28;20895;-58
2022/10/24 04:23:50;;;;;;;;;;;;;;;15.68;71.88;100222.75;5025459;28;19917;-58
2022/10/24 04:26:16;;;;;;;;;;;;;;;15.70;71.83;100220.66;5024959;28;20388;-57
2022/10/24 04:28:41;;;;;;;;;;;;;;;15.67;71.79;100221.09;5022007;28;19952;-59
2022/10/24 04:31:06;;;;;;;;;;;;;;;15.65;71.72;100228.53;5023181;28;19917;-57
2022/10/24 04:33:32;;;;;;;;;;;;;;;15.66;71.76;100229.34;5025147;28;19921;-58
2022/10/24 04:35:57;;;;;;;;;;;;;;;15.67;71.93;100233.66;5024843;28;19921;-58
2022/10/24 04:38:23;;;;;;;;;;;;;;;15.65;72.25;100233.91;5025313;28;21778;-58
2022/10/24 04:40:49;;;;;;;;;;;;;;;15.60;71.91;100212.28;5027735;28;19920;-58
2022/10/24 04:43:15;;;;;;;;;;;;;;;15.64;72.07;100231.44;5026240;28;20285;-58
2022/10/24 04:45:40;;;;;;;;;;;;;;;15.57;72.21;100231.44;5028147;28;20385;-58
2022/10/24 04:48:05;;;;;;;;;;;;;;;15.55;71.98;100222.81;5027216;28;20029;-58
2022/10/24 04:50:31;;;;;;;;;;;;;;;15.61;72.12;100223.81;5028073;28;19921;-59
2022/10/24 04:52:56;;;;;;;;;;;;;;;15.63;72.14;100235.16;5028176;28;20020;-58
2022/10/24 04:55:21;;;;;;;;;;;;;;;15.61;72.02;100222.00;5026544;28;20527;-57
2022/10/24 04:57:46;;;;;;;;;;;;;;;15.59;72.11;100221.34;5029458;28;19925;-58
2022/10/24 05:00:12;;;;;;;;;;;;;;;15.64;71.98;100228.75;5026834;28;19962;-58
2022/10/24 05:02:37;;;;;;;;;;;;;;;15.61;71.71;100224.66;5028206;28;20325;-57
2022/10/24 05:05:02;;;;;;;;;;;;;;;15.61;71.88;100234.53;5027332;28;20120;-58
2022/10/24 05:07:27;;;;;;;;;;;;;;;15.59;72.16;100242.78;5032244;28;19921;-58
2022/10/24 05:09:53;;;;;;;;;;;;;;;15.61;72.15;100223.81;5028018;28;19920;-58
2022/10/24 05:12:18;;;;;;;;;;;;;;;15.60;71.78;100225.66;5027951;28;19917;-58
2022/10/24 05:14:45;;;;;;;;;;;;;;;15.64;72.09;100228.75;5024286;28;20589;-57
2022/10/24 05:17:11;;;;;;;;;;;;;;;15.63;72.13;100233.28;5035521;28;20273;-58
2022/10/24 05:19:36;;;;;;;;;;;;;;;15.67;71.83;100229.13;5036613;28;19913;-58
2022/10/24 05:22:01;;;;;;;;;;;;;;;15.70;71.67;100239.41;5029106;28;19914;-58
2022/10/24 05:24:26;;;;;;;;;;;;;;;15.67;71.91;100237.16;5029296;28;20514;-58
2022/10/24 05:26:52;;;;;;;;;;;;;;;15.69;71.89;100245.81;5030317;28;19925;-58
2022/10/24 05:29:17;;;;;;;;;;;;;;;15.71;71.80;100249.06;5026963;28;19914;-58
2022/10/24 05:31:42;;;;;;;;;;;;;;;15.72;71.94;100239.19;5034136;28;19917;-58
2022/10/24 05:34:07;;;;;;;;;;;;;;;15.77;71.68;100242.84;5020716;28;20376;-58
2022/10/24 05:36:33;;;;;;;;;;;;;;;15.77;72.05;100244.69;5033659;28;19917;-59
2022/10/24 05:38:58;;;;;;;;;;;;;;;15.82;71.51;100254.75;5030022;28;20428;-57
2022/10/24 05:41:23;;;;;;;;;;;;;;;15.84;71.85;100248.13;5029483;28;19913;-58
2022/10/24 05:43:48;;;;;;;;;;;;;;;15.89;71.48;100237.56;5034469;28;19917;-58
2022/10/24 05:46:13;;;;;;;;;;;;;;;15.88;71.43;100243.16;5019737;28;20004;-58
2022/10/24 05:48:38;;;;;;;;;;;;;;;15.85;71.77;100239.06;5022670;28;19914;-58
2022/10/24 05:51:04;;;;;;;;;;;;;;;15.82;72.06;100238.69;5025420;28;20390;-59
2022/10/24 05:53:29;;;;;;;;;;;;;;;15.76;72.09;100249.22;5031129;28;20295;-58
2022/10/24 05:55:54;;;;;;;;;;;;;;;15.76;71.98;100251.91;5029540;28;19929;-59
2022/10/24 05:58:21;;;;;;;;;;;;;;;15.75;72.41;100246.78;5039146;28;20380;-59
2022/10/24 06:00:46;;;;;;;;;;;;;;;15.72;72.39;100248.03;5030120;28;19952;-58
2022/10/24 06:03:12;;;;;;;;;;;;;;;15.71;72.51;100258.97;5029219;28;20021;-58
2022/10/24 06:05:37;;;;;;;;;;;;;;;15.61;72.53;100248.75;5028903;28;20384;-57
2022/10/24 06:08:02;;;;;;;;;;;;;;;15.65;72.69;100260.66;5024964;28;19925;-58
2022/10/24 06:10:27;;;;;;;;;;;;;;;15.65;72.89;100249.97;5030114;28;19928;-58
2022/10/24 06:12:52;;;;;;;;;;;;;;;15.62;72.72;100254.94;5029411;28;19913;-58
2022/10/24 06:15:18;;;;;;;;;;;;;;;15.64;72.72;100268.91;5029175;28;19921;-58
2022/10/24 06:17:43;;;;;;;;;;;;;;;15.60;72.77;100259.66;5028591;28;19920;-57
2022/10/24 06:20:09;;;;;;;;;;;;;;;15.63;72.87;100267.28;5035165;28;19924;-58
2022/10/24 06:22:34;;;;;;;;;;;;;;;15.62;72.80;100271.00;5030704;28;19917;-58
2022/10/24 06:25:00;;;;;;;;;;;;;;;15.63;72.72;100269.94;5026836;28;19956;-58
2022/10/24 06:27:25;;;;;;;;;;;;;;;15.65;73.08;100276.72;5024624;28;19917;-58
2022/10/24 06:29:50;;;;;;;;;;;;;;;15.66;72.85;100297.09;5026941;28;19913;-58
2022/10/24 06:32:16;;;;;;;;;;;;;;;15.66;72.71;100290.94;5022607;28;19924;-58
2022/10/24 06:34:41;;;;;;;;;;;;;;;15.64;73.08;100279.63;5027205;28;20028;-58
2022/10/24 06:37:06;;;;;;;;;;;;;;;15.62;72.82;100290.53;5026526;28;20003;-59
2022/10/24 06:39:31;;;;;;;;;;;;;;;15.59;73.16;100296.31;5028183;28;19960;-57
2022/10/24 06:41:57;;;;;;;;;;;;;;;15.55;73.29;100302.28;5028098;28;19924;-58
2022/10/24 06:44:22;;;;;;;;;;;;;;;15.50;73.59;100301.06;5028848;28;19917;-57
2022/10/24 06:46:47;;;;;;;;;;;;;;;15.47;73.53;100301.50;5025625;28;19928;-58
2022/10/24 06:49:12;;;;;;;;;;;;;;;15.46;73.59;100307.06;5028248;28;19996;-58
2022/10/24 06:51:38;;;;;;;;;;;;;;;15.43;73.80;100313.69;5028564;28;19921;-58
2022/10/24 06:54:03;;;;;;;;;;;;;;;15.40;74.15;100306.09;5025967;28;19935;-59
2022/10/24 06:56:28;;;;;;;;;;;;;;;15.37;74.32;100317.22;5023016;28;19917;-57
2022/10/24 06:58:54;;;;;;;;;;;;;;;15.38;74.57;100313.50;5025847;28;19933;-58
2022/10/24 07:01:21;;;;;;;;;;;;;;;15.38;74.51;100324.22;5024532;28;19940;-58
2022/10/24 07:03:46;;;;;;;;;;;;;;;15.40;74.86;100327.50;5023258;28;19917;-58
2022/10/24 07:06:14;;;;;;;;;;;;;;;15.41;74.65;100317.59;5030776;28;19917;-58
2022/10/24 07:08:39;;;;;;;;;;;;;;;15.45;74.76;100332.19;5030080;28;19917;-59
2022/10/24 07:11:05;;;;;;;;;;;;;;;15.45;75.03;100326.84;5027776;28;20002;-58
2022/10/24 07:13:30;;;;;;;;;;;;;;;15.44;74.79;100325.19;5025689;28;19999;-58
2022/10/24 07:15:55;;;;;;;;;;;;;;;15.43;74.95;100327.06;5025377;28;20423;-58
2022/10/24 07:18:20;;;;;;;;;;;;;;;15.46;74.90;100331.16;5028386;28;19917;-58
2022/10/24 07:20:46;;;;;;;;;;;;;;;15.45;75.16;100337.56;5024649;28;19917;-58
2022/10/24 07:23:11;;;;;;;;;;;;;;;15.44;75.35;100357.31;5027275;28;19921;-58
2022/10/24 07:25:37;;;;;;;;;;;;;;;15.41;75.74;100379.16;5028647;28;19944;-58
2022/10/24 07:28:02;;;;;;;;;;;;;;;15.42;76.11;100359.38;5030172;28;19914;-58
2022/10/24 07:30:27;;;;;;;;;;;;;;;15.42;76.35;100362.06;5025182;28;20450;-57
2022/10/24 07:32:54;;;;;;;;;;;;;;;15.46;76.95;100364.09;5034313;28;19920;-58
2022/10/24 07:35:19;;;;;;;;;;;;;;;15.48;77.00;100370.03;5029036;28;19940;-58
2022/10/24 07:37:44;;;;;;;;;;;;;;;15.49;77.21;100373.53;5027552;28;20376;-58
2022/10/24 07:40:10;;;;;;;;;;;;;;;15.48;77.43;100366.56;5027172;28;20046;-58
2022/10/24 07:42:35;;;;;;;;;;;;;;;15.46;77.49;100366.78;5030343;28;20419;-58
2022/10/24 07:45:02;;;;;;;;;;;;;;;15.45;77.34;100383.03;5028743;28;19923;-58
2022/10/24 07:47:27;;;;;;;;;;;;;;;15.45;76.88;100399.09;5025519;28;19921;-58
2022/10/24 07:49:52;;;;;;;;;;;;;;;15.46;76.73;100382.81;5025971;28;19914;-58
2022/10/24 07:52:17;;;;;;;;;;;;;;;15.45;76.22;100394.56;5021445;28;19913;-58
2022/10/24 07:54:42;;;;;;;;;;;;;;;15.49;75.58;100419.84;5024403;28;20024;-58
2022/10/24 07:57:08;;;;;;;;;;;;;;;15.50;75.93;100409.97;5019925;28;19921;-58
2022/10/24 07:59:33;;;;;;;;;;;;;;;15.46;76.18;100412.25;5028993;28;19937;-59
2022/10/24 08:01:58;;;;;;;;;;;;;;;15.41;76.79;100411.25;5026882;28;19960;-58
2022/10/24 08:04:23;;;;;;;;;;;;;;;15.33;77.37;100416.88;5027534;28;19928;-58
2022/10/24 08:06:48;;;;;;;;;;;;;;;15.32;77.75;100409.84;5034327;28;20404;-58
2022/10/24 08:09:14;;;;;;;;;;;;;;;15.33;77.62;100404.31;5027575;28;20300;-58
2022/10/24 08:11:39;;;;;;;;;;;;;;;15.35;78.04;100420.16;5028980;28;19925;-59
2022/10/24 08:14:04;;;;;;;;;;;;;;;15.39;77.75;100424.84;5032180;28;19921;-58
2022/10/24 08:16:30;;;;;;;;;;;;;;;15.42;77.80;100429.78;5038476;28;19929;-58
2022/10/24 08:18:55;;;;;;;;;;;;;;;15.46;77.66;100425.63;5031330;28;20717;-58
2022/10/24 08:21:21;;;;;;;;;;;;;;;15.42;77.17;100420.94;5030760;28;20434;-58
2022/10/24 08:23:47;;;;;;;;;;;;;;;15.43;76.99;100449.34;5030013;28;20348;-58
2022/10/24 08:26:14;;;;;;;;;;;;;;;15.46;76.74;100451.59;5029750;28;20436;-57
2022/10/24 08:28:40;;;;;;;;;;;;;;;15.43;77.14;100433.28;5029178;28;20016;-57
2022/10/24 08:31:12;;;;;;;;;;;;;;;15.43;76.86;100438.63;5031752;28;20012;-57
2022/10/24 08:33:37;;;;;;;;;;;;;;;15.44;77.29;100435.75;5034735;28;19917;-59
2022/10/24 08:36:04;;;;;;;;;;;;;;;15.44;77.42;100441.09;5031746;28;19983;-58
2022/10/24 08:38:30;;;;;;;;;;;;;;;15.44;77.28;100434.91;5031920;28;19914;-58
2022/10/24 08:40:55;;;;;;;;;;;;;;;15.47;77.50;100435.31;5031901;28;19928;-58
2022/10/24 08:43:21;;;;;;;;;;;;;;;15.53;77.38;100444.34;5039284;28;20398;-59
2022/10/24 08:45:57;;;;;;;;;;;;;;;15.59;77.03;100423.97;5033433;28;19917;-58
2022/10/24 08:48:26;;;;;;;;;;;;;;;15.66;76.54;100438.16;5019956;28;19914;-58
2022/10/24 08:50:57;;;;;;;;;;;;;;;15.71;76.30;100444.50;5031628;28;19913;-58
2022/10/24 08:53:30;;;;;;;;;;;;;;;15.79;75.53;100448.78;5029110;28;20269;-58
2022/10/24 08:55:57;;;;;;;;;;;;;;;15.85;74.83;100466.66;5029972;28;19925;-59
2022/10/24 08:58:25;;;;;;;;;;;;;;;15.86;74.68;100448.75;5037480;28;19917;-59
2022/10/24 09:00:51;;;;;;;;;;;;;;;15.90;74.26;100441.91;5029572;28;19920;-58
2022/10/24 09:03:20;;;;;;;;;;;;;;;15.90;74.16;100466.88;5029861;28;20498;-58
2022/10/24 09:05:47;;;;;;;;;;;;;;;15.97;73.61;100448.06;5031783;28;19917;-58
2022/10/24 09:08:20;;;;;;;;;;;;;;;15.99;73.23;100464.75;5024619;28;20019;-58
2022/10/24 09:10:52;;;;;;;;;;;;;;;16.05;72.91;100466.56;5030209;28;19913;-57
2022/10/24 09:13:17;;;;;;;;;;;;;;;16.08;72.53;100463.44;5033748;28;19917;-58
2022/10/24 09:15:43;;;;;;;;;;;;;;;16.15;72.85;100466.91;5032163;28;19924;-58
2022/10/24 09:18:15;;;;;;;;;;;;;;;16.19;72.83;100476.16;5026549;28;19917;-58
2022/10/24 09:20:40;;;;;;;;;;;;;;;16.23;72.39;100466.66;5029081;28;19913;-58
2022/10/24 09:23:05;;;;;;;;;;;;;;;16.26;71.87;100473.44;5027264;28;20304;-59
2022/10/24 09:25:33;;;;;;;;;;;;;;;16.31;71.59;100469.06;5029485;28;19917;-59
2022/10/24 09:28:00;;;;;;;;;;;;;;;16.39;71.68;100468.78;5030771;28;19913;-58
2022/10/24 09:30:26;;;;;;;;;;;;;;;16.48;71.78;100484.59;5031906;28;20004;-58
2022/10/24 09:32:53;;;;;;;;;;;;;;;16.51;70.86;100479.66;5025853;28;19912;-57
2022/10/24 09:35:22;;;;;;;;;;;;;;;16.51;70.50;100489.56;5029100;28;20388;-59
2022/10/24 09:37:54;;;;;;;;;;;;;;;16.49;71.06;100481.72;5030842;28;20433;-59
2022/10/24 09:40:19;;;;;;;;;;;;;;;16.55;70.39;100494.25;5028567;28;20015;-59
2022/10/24 09:43:03;;;;;;;;;;;;;;;16.66;70.65;100506.16;5026001;28;20456;-59
2022/10/24 09:45:42;;;;;;;;;;;;;;;16.76;69.95;100497.59;5026372;28;19955;-58
2022/10/24 09:48:26;;;;;;;;;;;;;;;16.81;69.86;100501.28;5028875;28;19916;-58
2022/10/24 09:50:52;;;;;;;;;;;;;;;16.85;69.89;100513.22;5029753;28;19925;-58
2022/10/24 09:53:25;;;;;;;;;;;;;;;16.83;69.54;100493.84;5030182;28;19928;-58
2022/10/24 09:55:53;;;;;;;;;;;;;;;16.88;70.14;100512.78;5030751;28;20035;-58
2022/10/24 09:58:20;;;;;;;;;;;;;;;16.92;69.38;100505.13;5026327;28;20357;-58
2022/10/24 10:00:55;;;;;;;;;;;;;;;16.98;69.64;100520.31;5031269;28;19971;-59
2022/10/24 10:03:21;;;;;;;;;;;;;;;16.99;69.20;100525.47;5027283;28;19921;-59
2022/10/24 10:05:48;;;;;;;;;;;;;;;16.98;69.17;100534.56;5029337;28;19924;-58
2022/10/24 10:08:24;;;;;;;;;;;;;;;16.96;69.01;100535.81;5022480;28;20293;-58
2022/10/24 10:10:55;;;;;;;;;;;;;;;16.93;68.34;100536.25;5028898;28;20503;-58
2022/10/24 10:13:25;;;;;;;;;;;;;;;16.89;67.92;100545.78;5027805;28;19927;-58
2022/10/24 10:15:54;;;;;;;;;;;;;;;16.95;67.83;100536.84;5023769;28;20403;-58
2022/10/24 10:18:19;;;;;;;;;;;;;;;17.03;67.21;100558.84;5027098;28;19913;-59
2022/10/24 10:20:44;;;;;;;;;;;;;;;17.13;67.67;100542.28;5026413;28;20299;-59
2022/10/24 10:23:27;;;;;;;;;;;;;;;17.21;66.84;100546.53;5030085;28;19994;-58
2022/10/24 10:26:03;;;;;;;;;;;;;;;17.27;67.27;100559.88;5024657;28;20044;-59
2022/10/24 10:28:28;;;;;;;;;;;;;;;17.28;66.26;100561.53;5024767;28;20393;-59
2022/10/24 10:30:57;;;;;;;;;;;;;;;17.30;66.40;100567.50;5025238;28;19916;-59
2022/10/24 10:33:35;;;;;;;;;;;;;;;17.20;66.77;100551.06;5028919;28;19913;-58
2022/10/24 10:36:00;;;;;;;;;;;;;;;17.15;66.48;100561.66;5026178;28;19921;-58
2022/10/24 10:38:35;;;;;;;;;;;;;;;17.16;67.45;100589.31;5028274;28;19925;-58
2022/10/24 10:41:19;;;;;;;;;;;;;;;17.12;66.48;100577.38;5020953;28;19948;-58
2022/10/24 10:43:47;;;;;;;;;;;;;;;17.21;66.43;100600.22;5026180;28;19963;-58
2022/10/24 10:46:22;;;;;;;;;;;;;;;17.22;66.59;100586.56;5025557;28;19913;-59
2022/10/24 10:48:54;;;;;;;;;;;;;;;17.23;66.59;100587.38;5029124;28;20456;-59
2022/10/24 10:51:25;;;;;;;;;;;;;;;17.27;66.50;100592.09;5025384;28;19979;-58
2022/10/24 10:54:02;;;;;;;;;;;;;;;17.28;66.13;100582.19;5028174;28;19921;-58
2022/10/24 10:56:33;;;;;;;;;;;;;;;17.21;66.06;100581.41;5027796;28;20319;-59
2022/10/24 10:59:06;;;;;;;;;;;;;;;17.25;66.60;100590.66;5032785;28;19917;-58
2022/10/24 11:01:41;;;;;;;;;;;;;;;17.40;67.53;100582.28;5024130;28;19925;-58
2022/10/24 11:04:06;;;;;;;;;;;;;;;17.61;66.33;100577.28;5027993;28;19925;-59
2022/10/24 11:06:34;;;;;;;;;;;;;;;17.71;65.63;100576.00;5028031;28;19925;-58
2022/10/24 11:09:18;;;;;;;;;;;;;;;17.61;64.92;100588.03;5034376;28;19923;-58
2022/10/24 11:11:47;;;;;;;;;;;;;;;17.48;64.62;100596.25;5022617;28;20004;-58
2022/10/24 11:14:24;;;;;;;;;;;;;;;17.46;64.55;100590.28;5027521;28;19921;-59
2022/10/24 11:16:52;;;;;;;;;;;;;;;17.46;65.00;100592.94;5034600;28;19944;-59
2022/10/24 11:19:40;;;;;;;;;;;;;;;17.50;65.00;100607.56;5025954;28;19924;-59
2022/10/24 11:22:08;;;;;;;;;;;;;;;17.47;65.55;100607.19;5008336;28;19939;-58
2022/10/24 11:24:42;;;;;;;;;;;;;;;17.50;65.32;100598.69;5027169;28;19920;-58
2022/10/24 11:27:15;;;;;;;;;;;;;;;17.48;65.86;100598.09;5032932;28;19924;-58
2022/10/24 11:29:44;;;;;;;;;;;;;;;17.15;67.41;100609.97;5028107;28;20495;-59
2022/10/24 11:32:17;;;;;;;;;;;;;;;16.34;69.82;100624.06;5027915;28;19924;-57
2022/10/24 11:34:50;;;;;;;;;;;;;;;15.97;71.94;100614.94;5026274;28;19921;-59
2022/10/24 11:37:23;;;;;;;;;;;;;;;15.53;74.73;100615.63;5028208;28;19913;-58
2022/10/24 11:40:01;;;;;;;;;;;;;;;15.26;76.44;100611.34;5024259;28;19913;-58
2022/10/24 11:42:36;;;;;;;;;;;;;;;15.24;77.51;100616.06;5020771;28;19925;-58
2022/10/24 11:45:05;;;;;;;;;;;;;;;15.44;77.58;100628.41;5031873;28;19917;-57
2022/10/24 11:47:49;;;;;;;;;;;;;;;15.74;76.77;100628.81;5035603;28;19913;-59
2022/10/24 11:50:23;;;;;;;;;;;;;;;16.11;75.24;100626.44;5029750;28;19931;-57
2022/10/24 11:52:50;;;;;;;;;;;;;;;16.50;74.12;100613.91;5029394;28;19913;-57
2022/10/24 11:55:18;;;;;;;;;;;;;;;16.86;72.85;100632.88;5022987;28;19921;-56
2022/10/24 11:57:45;;;;;;;;;;;;;;;17.00;71.34;100625.53;5032778;28;19924;-57
2022/10/24 12:00:16;;;;;;;;;;;;;;;16.98;71.12;100625.75;5022480;28;19924;-57
2022/10/24 12:02:42;;;;;;;;;;;;;;;16.93;70.51;100622.09;5031210;28;19921;-59
2022/10/24 12:05:26;;;;;;;;;;;;;;;16.85;69.80;100617.81;5032373;28;19992;-58
2022/10/24 12:08:11;;;;;;;;;;;;;;;16.83;69.85;100622.59;5036333;28;19912;-57
2022/10/24 12:11:00;;;;;;;;;;;;;;;16.84;69.16;100637.63;5025934;28;19976;-57
2022/10/24 12:13:39;;;;;;;;;;;;;;;16.89;68.64;100610.97;5027135;28;20016;-57
2022/10/24 12:16:20;;;;;;;;;;;;;;;16.95;68.52;100615.47;5030377;28;20021;-58
2022/10/24 12:18:47;;;;;;;;;;;;;;;16.93;68.82;100622.91;5031902;28;19948;-57
2022/10/24 12:21:14;;;;;;;;;;;;;;;16.90;68.34;100635.94;5026953;28;19924;-59
2022/10/24 12:23:41;;;;;;;;;;;;;;;16.85;67.88;100633.91;5027390;28;19943;-58
2022/10/24 12:26:12;;;;;;;;;;;;;;;16.84;67.80;100637.63;5035116;28;19925;-58
2022/10/24 12:28:38;;;;;;;;;;;;;;;16.77;68.09;100644.91;5036737;28;20400;-59
2022/10/24 12:31:08;;;;;;;;;;;;;;;16.76;69.31;100640.56;5028118;28;19956;-58
2022/10/24 12:33:33;;;;;;;;;;;;;;;16.84;70.90;100632.28;5030921;28;19917;-59
2022/10/24 12:35:58;;;;;;;;;;;;;;;16.73;71.75;100638.31;5027717;28;19948;-58
2022/10/24 12:38:26;;;;;;;;;;;;;;;16.57;72.71;100645.00;5025972;28;19917;-58